sensor_id;sensor_type;location;lat;lon;timestamp;P1;durP1;ratioP1;P2;durP2;ratioP2
28009;SDS011;15334;49.494;8.410;2023-03-01T00:00:04;15.02;;;7.10;;
28009;SDS011;15334;49.494;8.410;2023-03-01T00:02:34;15.82;;;7.95;;
28009;SDS011;15334;49.494;8.410;2023-03-01T00:05:03;16.27;;;7.80;;
28009;SDS011;15334;49.494;8.410;2023-03-01T00:07:33;15.52;;;7.70;;
28009;SDS011;15334;49.494;8.410;2023-03-01T00:10:01;20.17;;;7.53;;
28009;SDS011;15334;49.494;8.410;2023-03-01T00:12:30;19.15;;;9.70;;
28009;SDS011;15334;49.494;8.410;2023-03-01T00:15:00;17.67;;;8.10;;
28009;SDS011;15334;49.494;8.410;2023-03-01T00:17:28;21.08;;;8.32;;
28009;SDS011;15334;49.494;8.410;2023-03-01T00:19:56;19.10;;;7.82;;
28009;SDS011;15334;49.494;8.410;2023-03-01T00:22:24;17.75;;;8.38;;
28009;SDS011;15334;49.494;8.410;2023-03-01T00:24:54;18.52;;;8.23;;
28009;SDS011;15334;49.494;8.410;2023-03-01T00:27:22;16.27;;;7.60;;
28009;SDS011;15334;49.494;8.410;2023-03-01T00:29:50;16.77;;;8.00;;
28009;SDS011;15334;49.494;8.410;2023-03-01T00:32:20;19.10;;;8.48;;
28009;SDS011;15334;49.494;8.410;2023-03-01T00:34:48;15.65;;;7.65;;
28009;SDS011;15334;49.494;8.410;2023-03-01T00:37:21;17.45;;;8.27;;
28009;SDS011;15334;49.494;8.410;2023-03-01T00:39:49;19.42;;;7.88;;
28009;SDS011;15334;49.494;8.410;2023-03-01T00:42:17;18.60;;;8.00;;
28009;SDS011;15334;49.494;8.410;2023-03-01T00:44:45;16.50;;;7.93;;
28009;SDS011;15334;49.494;8.410;2023-03-01T00:47:15;15.95;;;8.18;;
28009;SDS011;15334;49.494;8.410;2023-03-01T00:49:45;18.30;;;7.53;;
28009;SDS011;15334;49.494;8.410;2023-03-01T00:52:12;19.13;;;8.10;;
28009;SDS011;15334;49.494;8.410;2023-03-01T00:54:40;15.75;;;7.88;;
28009;SDS011;15334;49.494;8.410;2023-03-01T00:57:08;19.02;;;8.40;;
28009;SDS011;15334;49.494;8.410;2023-03-01T00:59:36;17.75;;;8.70;;
28009;SDS011;15334;49.494;8.410;2023-03-01T01:02:04;15.93;;;7.85;;
28009;SDS011;15334;49.494;8.410;2023-03-01T01:04:32;13.80;;;7.55;;
28009;SDS011;15334;49.494;8.410;2023-03-01T01:07:01;19.77;;;9.65;;
28009;SDS011;15334;49.494;8.410;2023-03-01T01:09:31;19.25;;;9.10;;
28009;SDS011;15334;49.494;8.410;2023-03-01T01:11:59;19.95;;;8.40;;
28009;SDS011;15334;49.494;8.410;2023-03-01T01:14:27;22.17;;;9.38;;
28009;SDS011;15334;49.494;8.410;2023-03-01T01:16:55;18.90;;;9.02;;
28009;SDS011;15334;49.494;8.410;2023-03-01T01:19:25;21.88;;;9.02;;
28009;SDS011;15334;49.494;8.410;2023-03-01T01:21:53;16.25;;;8.50;;
28009;SDS011;15334;49.494;8.410;2023-03-01T01:24:22;21.45;;;8.75;;
28009;SDS011;15334;49.494;8.410;2023-03-01T01:26:50;16.35;;;8.30;;
28009;SDS011;15334;49.494;8.410;2023-03-01T01:29:18;21.27;;;9.07;;
28009;SDS011;15334;49.494;8.410;2023-03-01T01:31:46;21.77;;;9.75;;
28009;SDS011;15334;49.494;8.410;2023-03-01T01:34:15;18.65;;;8.45;;
28009;SDS011;15334;49.494;8.410;2023-03-01T01:36:47;20.52;;;9.27;;
28009;SDS011;15334;49.494;8.410;2023-03-01T01:39:15;22.37;;;8.90;;
28009;SDS011;15334;49.494;8.410;2023-03-01T01:41:45;20.65;;;9.63;;
28009;SDS011;15334;49.494;8.410;2023-03-01T01:44:15;21.77;;;9.30;;
28009;SDS011;15334;49.494;8.410;2023-03-01T01:46:46;19.70;;;8.90;;
28009;SDS011;15334;49.494;8.410;2023-03-01T01:49:19;18.35;;;9.45;;
28009;SDS011;15334;49.494;8.410;2023-03-01T01:51:55;16.75;;;8.38;;
28009;SDS011;15334;49.494;8.410;2023-03-01T01:54:30;19.77;;;8.82;;
28009;SDS011;15334;49.494;8.410;2023-03-01T01:57:07;17.20;;;7.40;;
28009;SDS011;15334;49.494;8.410;2023-03-01T01:59:43;18.50;;;8.75;;
28009;SDS011;15334;49.494;8.410;2023-03-01T02:02:17;17.40;;;8.60;;
28009;SDS011;15334;49.494;8.410;2023-03-01T02:04:46;21.77;;;9.38;;
28009;SDS011;15334;49.494;8.410;2023-03-01T02:07:18;22.77;;;8.95;;
28009;SDS011;15334;49.494;8.410;2023-03-01T02:09:49;20.98;;;8.85;;
28009;SDS011;15334;49.494;8.410;2023-03-01T02:14:54;20.63;;;7.75;;
28009;SDS011;15334;49.494;8.410;2023-03-01T02:17:22;23.65;;;8.90;;
28009;SDS011;15334;49.494;8.410;2023-03-01T02:19:54;18.05;;;8.60;;
28009;SDS011;15334;49.494;8.410;2023-03-01T02:22:33;19.48;;;9.13;;
28009;SDS011;15334;49.494;8.410;2023-03-01T02:25:07;23.63;;;9.73;;
28009;SDS011;15334;49.494;8.410;2023-03-01T02:27:48;16.98;;;8.77;;
28009;SDS011;15334;49.494;8.410;2023-03-01T02:30:21;27.40;;;10.15;;
28009;SDS011;15334;49.494;8.410;2023-03-01T02:32:49;28.20;;;9.25;;
28009;SDS011;15334;49.494;8.410;2023-03-01T02:35:20;29.00;;;11.85;;
28009;SDS011;15334;49.494;8.410;2023-03-01T02:37:49;27.00;;;12.57;;
28009;SDS011;15334;49.494;8.410;2023-03-01T02:40:18;26.38;;;11.88;;
28009;SDS011;15334;49.494;8.410;2023-03-01T02:42:49;22.58;;;10.23;;
28009;SDS011;15334;49.494;8.410;2023-03-01T02:45:22;22.15;;;10.10;;
28009;SDS011;15334;49.494;8.410;2023-03-01T02:47:53;24.98;;;10.02;;
28009;SDS011;15334;49.494;8.410;2023-03-01T02:50:31;22.65;;;10.20;;
28009;SDS011;15334;49.494;8.410;2023-03-01T02:53:12;22.08;;;8.93;;
28009;SDS011;15334;49.494;8.410;2023-03-01T02:55:48;18.58;;;10.38;;
28009;SDS011;15334;49.494;8.410;2023-03-01T02:58:17;22.30;;;9.52;;
28009;SDS011;15334;49.494;8.410;2023-03-01T03:00:46;22.70;;;9.75;;
28009;SDS011;15334;49.494;8.410;2023-03-01T03:03:15;21.25;;;9.45;;
28009;SDS011;15334;49.494;8.410;2023-03-01T03:05:46;25.85;;;10.10;;
28009;SDS011;15334;49.494;8.410;2023-03-01T03:08:14;24.88;;;9.82;;
28009;SDS011;15334;49.494;8.410;2023-03-01T03:10:50;21.25;;;9.50;;
28009;SDS011;15334;49.494;8.410;2023-03-01T03:13:19;23.15;;;10.30;;
28009;SDS011;15334;49.494;8.410;2023-03-01T03:15:49;21.90;;;9.57;;
28009;SDS011;15334;49.494;8.410;2023-03-01T03:18:17;24.75;;;9.98;;
28009;SDS011;15334;49.494;8.410;2023-03-01T03:20:46;17.55;;;8.52;;
28009;SDS011;15334;49.494;8.410;2023-03-01T03:23:18;21.92;;;9.63;;
28009;SDS011;15334;49.494;8.410;2023-03-01T03:25:47;22.77;;;10.77;;
28009;SDS011;15334;49.494;8.410;2023-03-01T03:28:16;23.38;;;10.68;;
28009;SDS011;15334;49.494;8.410;2023-03-01T03:30:44;30.48;;;11.23;;
28009;SDS011;15334;49.494;8.410;2023-03-01T03:33:14;24.35;;;10.30;;
28009;SDS011;15334;49.494;8.410;2023-03-01T03:35:42;26.63;;;11.10;;
28009;SDS011;15334;49.494;8.410;2023-03-01T03:38:13;37.05;;;14.30;;
28009;SDS011;15334;49.494;8.410;2023-03-01T03:40:44;38.47;;;16.88;;
28009;SDS011;15334;49.494;8.410;2023-03-01T03:43:14;37.28;;;15.23;;
28009;SDS011;15334;49.494;8.410;2023-03-01T03:45:44;35.83;;;15.43;;
28009;SDS011;15334;49.494;8.410;2023-03-01T03:48:15;35.35;;;15.05;;
28009;SDS011;15334;49.494;8.410;2023-03-01T03:50:47;30.52;;;13.65;;
28009;SDS011;15334;49.494;8.410;2023-03-01T03:53:19;27.90;;;13.93;;
28009;SDS011;15334;49.494;8.410;2023-03-01T03:55:52;36.53;;;13.95;;
28009;SDS011;15334;49.494;8.410;2023-03-01T03:58:22;36.33;;;15.10;;
28009;SDS011;15334;49.494;8.410;2023-03-01T04:00:56;29.55;;;12.63;;
28009;SDS011;15334;49.494;8.410;2023-03-01T04:03:31;24.90;;;12.38;;
28009;SDS011;15334;49.494;8.410;2023-03-01T04:06:07;23.17;;;11.07;;
28009;SDS011;15334;49.494;8.410;2023-03-01T04:08:45;21.15;;;10.43;;
28009;SDS011;15334;49.494;8.410;2023-03-01T04:11:22;22.48;;;9.98;;
28009;SDS011;15334;49.494;8.410;2023-03-01T04:13:55;21.88;;;10.38;;
28009;SDS011;15334;49.494;8.410;2023-03-01T04:16:30;23.00;;;11.05;;
28009;SDS011;15334;49.494;8.410;2023-03-01T04:19:00;23.45;;;10.80;;
28009;SDS011;15334;49.494;8.410;2023-03-01T04:21:29;29.15;;;12.30;;
28009;SDS011;15334;49.494;8.410;2023-03-01T04:23:59;24.48;;;10.93;;
28009;SDS011;15334;49.494;8.410;2023-03-01T04:26:29;36.00;;;13.20;;
28009;SDS011;15334;49.494;8.410;2023-03-01T04:28:58;29.75;;;13.50;;
28009;SDS011;15334;49.494;8.410;2023-03-01T04:31:26;33.63;;;12.45;;
28009;SDS011;15334;49.494;8.410;2023-03-01T04:33:54;27.25;;;12.15;;
28009;SDS011;15334;49.494;8.410;2023-03-01T04:36:25;28.27;;;12.98;;
28009;SDS011;15334;49.494;8.410;2023-03-01T04:38:55;28.48;;;11.63;;
28009;SDS011;15334;49.494;8.410;2023-03-01T04:41:24;24.73;;;11.15;;
28009;SDS011;15334;49.494;8.410;2023-03-01T04:43:52;22.60;;;11.45;;
28009;SDS011;15334;49.494;8.410;2023-03-01T04:46:20;27.65;;;10.20;;
28009;SDS011;15334;49.494;8.410;2023-03-01T04:48:49;27.30;;;11.55;;
28009;SDS011;15334;49.494;8.410;2023-03-01T04:51:17;33.97;;;12.35;;
28009;SDS011;15334;49.494;8.410;2023-03-01T04:53:46;25.05;;;11.45;;
28009;SDS011;15334;49.494;8.410;2023-03-01T04:56:15;25.80;;;10.68;;
28009;SDS011;15334;49.494;8.410;2023-03-01T04:58:44;24.52;;;11.48;;
28009;SDS011;15334;49.494;8.410;2023-03-01T05:01:13;24.95;;;11.05;;
28009;SDS011;15334;49.494;8.410;2023-03-01T05:03:43;23.92;;;11.88;;
28009;SDS011;15334;49.494;8.410;2023-03-01T05:06:12;33.15;;;14.52;;
28009;SDS011;15334;49.494;8.410;2023-03-01T05:08:46;31.58;;;13.32;;
28009;SDS011;15334;49.494;8.410;2023-03-01T05:11:24;29.15;;;12.20;;
28009;SDS011;15334;49.494;8.410;2023-03-01T05:13:54;31.27;;;12.75;;
28009;SDS011;15334;49.494;8.410;2023-03-01T05:16:26;18.57;;;8.83;;
28009;SDS011;15334;49.494;8.410;2023-03-01T05:19:01;26.52;;;11.60;;
28009;SDS011;15334;49.494;8.410;2023-03-01T05:21:38;26.60;;;11.73;;
28009;SDS011;15334;49.494;8.410;2023-03-01T05:24:29;29.52;;;11.63;;
28009;SDS011;15334;49.494;8.410;2023-03-01T05:27:07;26.55;;;11.27;;
28009;SDS011;15334;49.494;8.410;2023-03-01T05:29:46;24.10;;;11.27;;
28009;SDS011;15334;49.494;8.410;2023-03-01T05:32:18;26.40;;;11.20;;
28009;SDS011;15334;49.494;8.410;2023-03-01T05:34:49;28.48;;;11.40;;
28009;SDS011;15334;49.494;8.410;2023-03-01T05:37:24;25.13;;;11.73;;
28009;SDS011;15334;49.494;8.410;2023-03-01T05:39:57;31.27;;;11.65;;
28009;SDS011;15334;49.494;8.410;2023-03-01T05:42:26;29.73;;;13.87;;
28009;SDS011;15334;49.494;8.410;2023-03-01T05:45:01;20.73;;;10.77;;
28009;SDS011;15334;49.494;8.410;2023-03-01T05:47:32;25.70;;;11.40;;
28009;SDS011;15334;49.494;8.410;2023-03-01T05:50:04;28.50;;;11.38;;
28009;SDS011;15334;49.494;8.410;2023-03-01T05:52:48;22.77;;;10.65;;
28009;SDS011;15334;49.494;8.410;2023-03-01T05:55:23;32.90;;;11.93;;
28009;SDS011;15334;49.494;8.410;2023-03-01T05:57:54;29.38;;;11.95;;
28009;SDS011;15334;49.494;8.410;2023-03-01T06:00:24;26.88;;;11.20;;
28009;SDS011;15334;49.494;8.410;2023-03-01T06:02:56;23.38;;;11.02;;
28009;SDS011;15334;49.494;8.410;2023-03-01T06:05:26;22.88;;;10.68;;
28009;SDS011;15334;49.494;8.410;2023-03-01T06:07:56;28.60;;;10.93;;
28009;SDS011;15334;49.494;8.410;2023-03-01T06:10:27;27.45;;;11.90;;
28009;SDS011;15334;49.494;8.410;2023-03-01T06:12:56;29.00;;;13.48;;
28009;SDS011;15334;49.494;8.410;2023-03-01T06:15:24;25.58;;;11.35;;
28009;SDS011;15334;49.494;8.410;2023-03-01T06:17:53;28.23;;;12.88;;
28009;SDS011;15334;49.494;8.410;2023-03-01T06:20:26;27.58;;;12.43;;
28009;SDS011;15334;49.494;8.410;2023-03-01T06:22:55;33.47;;;12.18;;
28009;SDS011;15334;49.494;8.410;2023-03-01T06:25:28;26.27;;;11.70;;
28009;SDS011;15334;49.494;8.410;2023-03-01T06:27:56;20.70;;;11.23;;
28009;SDS011;15334;49.494;8.410;2023-03-01T06:30:25;25.05;;;11.82;;
28009;SDS011;15334;49.494;8.410;2023-03-01T06:32:55;28.42;;;11.20;;
28009;SDS011;15334;49.494;8.410;2023-03-01T06:35:27;23.90;;;10.27;;
28009;SDS011;15334;49.494;8.410;2023-03-01T06:37:57;26.73;;;11.82;;
28009;SDS011;15334;49.494;8.410;2023-03-01T06:40:30;31.67;;;11.93;;
28009;SDS011;15334;49.494;8.410;2023-03-01T06:42:58;31.70;;;11.68;;
28009;SDS011;15334;49.494;8.410;2023-03-01T06:45:27;27.27;;;10.20;;
28009;SDS011;15334;49.494;8.410;2023-03-01T06:48:01;25.65;;;11.55;;
28009;SDS011;15334;49.494;8.410;2023-03-01T06:50:30;22.58;;;11.00;;
28009;SDS011;15334;49.494;8.410;2023-03-01T06:52:59;26.20;;;10.90;;
28009;SDS011;15334;49.494;8.410;2023-03-01T06:55:27;23.00;;;10.35;;
28009;SDS011;15334;49.494;8.410;2023-03-01T06:57:56;25.55;;;11.18;;
28009;SDS011;15334;49.494;8.410;2023-03-01T07:00:26;23.55;;;10.70;;
28009;SDS011;15334;49.494;8.410;2023-03-01T07:02:55;27.55;;;11.57;;
28009;SDS011;15334;49.494;8.410;2023-03-01T07:05:26;28.27;;;12.27;;
28009;SDS011;15334;49.494;8.410;2023-03-01T07:07:54;21.85;;;11.45;;
28009;SDS011;15334;49.494;8.410;2023-03-01T07:10:22;23.50;;;10.75;;
28009;SDS011;15334;49.494;8.410;2023-03-01T07:12:53;27.15;;;11.10;;
28009;SDS011;15334;49.494;8.410;2023-03-01T07:15:26;24.25;;;11.10;;
28009;SDS011;15334;49.494;8.410;2023-03-01T07:17:54;33.10;;;11.63;;
28009;SDS011;15334;49.494;8.410;2023-03-01T07:20:25;22.15;;;10.40;;
28009;SDS011;15334;49.494;8.410;2023-03-01T07:22:54;30.92;;;12.55;;
28009;SDS011;15334;49.494;8.410;2023-03-01T07:25:24;29.95;;;11.20;;
28009;SDS011;15334;49.494;8.410;2023-03-01T07:27:53;28.65;;;12.05;;
28009;SDS011;15334;49.494;8.410;2023-03-01T07:30:21;26.27;;;11.05;;
28009;SDS011;15334;49.494;8.410;2023-03-01T07:32:53;25.45;;;11.10;;
28009;SDS011;15334;49.494;8.410;2023-03-01T07:35:22;26.13;;;11.48;;
28009;SDS011;15334;49.494;8.410;2023-03-01T07:37:50;26.90;;;11.20;;
28009;SDS011;15334;49.494;8.410;2023-03-01T07:40:18;20.98;;;10.73;;
28009;SDS011;15334;49.494;8.410;2023-03-01T07:42:47;28.30;;;11.68;;
28009;SDS011;15334;49.494;8.410;2023-03-01T07:45:15;24.90;;;11.10;;
28009;SDS011;15334;49.494;8.410;2023-03-01T07:47:46;24.23;;;10.50;;
28009;SDS011;15334;49.494;8.410;2023-03-01T07:50:16;26.42;;;11.13;;
28009;SDS011;15334;49.494;8.410;2023-03-01T07:52:44;28.38;;;12.10;;
28009;SDS011;15334;49.494;8.410;2023-03-01T07:55:12;29.30;;;11.82;;
28009;SDS011;15334;49.494;8.410;2023-03-01T07:57:41;28.45;;;12.32;;
28009;SDS011;15334;49.494;8.410;2023-03-01T08:00:09;24.95;;;11.10;;
28009;SDS011;15334;49.494;8.410;2023-03-01T08:02:39;31.25;;;11.75;;
28009;SDS011;15334;49.494;8.410;2023-03-01T08:05:08;25.15;;;11.70;;
28009;SDS011;15334;49.494;8.410;2023-03-01T08:07:38;27.60;;;11.70;;
28009;SDS011;15334;49.494;8.410;2023-03-01T08:10:06;28.02;;;10.90;;
28009;SDS011;15334;49.494;8.410;2023-03-01T08:12:35;26.15;;;11.00;;
28009;SDS011;15334;49.494;8.410;2023-03-01T08:15:03;20.70;;;10.00;;
28009;SDS011;15334;49.494;8.410;2023-03-01T08:17:32;24.30;;;10.90;;
28009;SDS011;15334;49.494;8.410;2023-03-01T08:20:00;22.15;;;10.90;;
28009;SDS011;15334;49.494;8.410;2023-03-01T08:22:28;27.45;;;11.40;;
28009;SDS011;15334;49.494;8.410;2023-03-01T08:24:58;24.30;;;10.93;;
28009;SDS011;15334;49.494;8.410;2023-03-01T08:27:34;21.52;;;11.02;;
28009;SDS011;15334;49.494;8.410;2023-03-01T08:30:02;28.67;;;11.50;;
28009;SDS011;15334;49.494;8.410;2023-03-01T08:32:34;24.92;;;10.30;;
28009;SDS011;15334;49.494;8.410;2023-03-01T08:35:04;26.42;;;11.50;;
28009;SDS011;15334;49.494;8.410;2023-03-01T08:37:33;29.10;;;12.13;;
28009;SDS011;15334;49.494;8.410;2023-03-01T08:40:02;24.75;;;11.18;;
28009;SDS011;15334;49.494;8.410;2023-03-01T08:42:34;26.23;;;10.88;;
28009;SDS011;15334;49.494;8.410;2023-03-01T08:45:03;33.00;;;12.20;;
28009;SDS011;15334;49.494;8.410;2023-03-01T08:47:32;24.42;;;11.40;;
28009;SDS011;15334;49.494;8.410;2023-03-01T08:50:00;26.15;;;11.43;;
28009;SDS011;15334;49.494;8.410;2023-03-01T08:52:31;22.40;;;11.13;;
28009;SDS011;15334;49.494;8.410;2023-03-01T08:55:06;21.48;;;10.65;;
28009;SDS011;15334;49.494;8.410;2023-03-01T08:57:35;31.20;;;12.50;;
28009;SDS011;15334;49.494;8.410;2023-03-01T09:00:03;23.63;;;11.65;;
28009;SDS011;15334;49.494;8.410;2023-03-01T09:02:34;25.67;;;11.43;;
28009;SDS011;15334;49.494;8.410;2023-03-01T09:05:06;28.02;;;12.23;;
28009;SDS011;15334;49.494;8.410;2023-03-01T09:07:34;24.77;;;11.35;;
28009;SDS011;15334;49.494;8.410;2023-03-01T09:10:02;23.98;;;10.85;;
28009;SDS011;15334;49.494;8.410;2023-03-01T09:15:02;29.55;;;12.25;;
28009;SDS011;15334;49.494;8.410;2023-03-01T09:17:30;25.02;;;10.98;;
28009;SDS011;15334;49.494;8.410;2023-03-01T09:19:58;30.95;;;12.23;;
28009;SDS011;15334;49.494;8.410;2023-03-01T09:22:32;25.70;;;12.48;;
28009;SDS011;15334;49.494;8.410;2023-03-01T09:25:01;28.77;;;11.63;;
28009;SDS011;15334;49.494;8.410;2023-03-01T09:27:29;27.60;;;11.63;;
28009;SDS011;15334;49.494;8.410;2023-03-01T09:30:01;26.80;;;11.75;;
28009;SDS011;15334;49.494;8.410;2023-03-01T09:32:29;25.52;;;11.05;;
28009;SDS011;15334;49.494;8.410;2023-03-01T09:34:58;29.35;;;12.07;;
28009;SDS011;15334;49.494;8.410;2023-03-01T09:37:31;28.55;;;12.35;;
28009;SDS011;15334;49.494;8.410;2023-03-01T09:40:01;29.00;;;11.60;;
28009;SDS011;15334;49.494;8.410;2023-03-01T09:42:31;26.27;;;11.60;;
28009;SDS011;15334;49.494;8.410;2023-03-01T09:45:05;25.35;;;12.45;;
28009;SDS011;15334;49.494;8.410;2023-03-01T09:47:38;24.83;;;11.07;;
28009;SDS011;15334;49.494;8.410;2023-03-01T09:50:09;25.42;;;11.60;;
28009;SDS011;15334;49.494;8.410;2023-03-01T09:55:11;22.17;;;11.35;;
28009;SDS011;15334;49.494;8.410;2023-03-01T09:57:41;23.92;;;11.00;;
28009;SDS011;15334;49.494;8.410;2023-03-01T10:00:19;28.02;;;12.00;;
28009;SDS011;15334;49.494;8.410;2023-03-01T10:03:01;28.52;;;13.02;;
28009;SDS011;15334;49.494;8.410;2023-03-01T10:05:48;27.30;;;11.50;;
28009;SDS011;15334;49.494;8.410;2023-03-01T10:08:25;33.05;;;12.77;;
28009;SDS011;15334;49.494;8.410;2023-03-01T10:11:02;26.50;;;11.18;;
28009;SDS011;15334;49.494;8.410;2023-03-01T10:13:33;29.58;;;12.55;;
28009;SDS011;15334;49.494;8.410;2023-03-01T10:16:11;27.80;;;12.38;;
28009;SDS011;15334;49.494;8.410;2023-03-01T10:18:52;27.50;;;12.25;;
28009;SDS011;15334;49.494;8.410;2023-03-01T10:21:23;26.80;;;12.50;;
28009;SDS011;15334;49.494;8.410;2023-03-01T10:24:05;22.60;;;12.55;;
28009;SDS011;15334;49.494;8.410;2023-03-01T10:26:42;30.50;;;13.38;;
28009;SDS011;15334;49.494;8.410;2023-03-01T10:29:18;27.48;;;11.88;;
28009;SDS011;15334;49.494;8.410;2023-03-01T10:31:56;26.65;;;11.75;;
28009;SDS011;15334;49.494;8.410;2023-03-01T10:34:27;26.15;;;12.98;;
28009;SDS011;15334;49.494;8.410;2023-03-01T10:39:28;34.45;;;13.70;;
28009;SDS011;15334;49.494;8.410;2023-03-01T10:41:58;25.48;;;11.80;;
28009;SDS011;15334;49.494;8.410;2023-03-01T10:44:35;26.90;;;13.13;;
28009;SDS011;15334;49.494;8.410;2023-03-01T10:47:12;24.38;;;11.43;;
28009;SDS011;15334;49.494;8.410;2023-03-01T10:52:55;26.05;;;12.50;;
28009;SDS011;15334;49.494;8.410;2023-03-01T10:55:27;22.98;;;11.45;;
28009;SDS011;15334;49.494;8.410;2023-03-01T10:58:08;27.10;;;12.30;;
28009;SDS011;15334;49.494;8.410;2023-03-01T11:00:46;24.83;;;11.63;;
28009;SDS011;15334;49.494;8.410;2023-03-01T11:03:18;22.02;;;12.32;;
28009;SDS011;15334;49.494;8.410;2023-03-01T11:05:50;30.05;;;13.00;;
28009;SDS011;15334;49.494;8.410;2023-03-01T11:08:31;29.30;;;12.90;;
28009;SDS011;15334;49.494;8.410;2023-03-01T11:11:06;28.05;;;12.32;;
28009;SDS011;15334;49.494;8.410;2023-03-01T11:13:47;21.88;;;11.75;;
28009;SDS011;15334;49.494;8.410;2023-03-01T11:16:23;23.27;;;12.07;;
28009;SDS011;15334;49.494;8.410;2023-03-01T11:18:58;28.25;;;12.40;;
28009;SDS011;15334;49.494;8.410;2023-03-01T11:21:29;22.20;;;11.70;;
28009;SDS011;15334;49.494;8.410;2023-03-01T11:24:00;21.70;;;11.20;;
28009;SDS011;15334;49.494;8.410;2023-03-01T11:26:29;23.38;;;12.15;;
28009;SDS011;15334;49.494;8.410;2023-03-01T11:29:12;26.40;;;11.70;;
28009;SDS011;15334;49.494;8.410;2023-03-01T11:31:45;19.20;;;11.15;;
28009;SDS011;15334;49.494;8.410;2023-03-01T11:34:28;20.63;;;11.52;;
28009;SDS011;15334;49.494;8.410;2023-03-01T11:37:13;22.05;;;12.00;;
28009;SDS011;15334;49.494;8.410;2023-03-01T11:39:53;23.15;;;11.57;;
28009;SDS011;15334;49.494;8.410;2023-03-01T11:42:28;23.00;;;11.43;;
28009;SDS011;15334;49.494;8.410;2023-03-01T11:45:11;21.05;;;11.63;;
28009;SDS011;15334;49.494;8.410;2023-03-01T11:47:44;21.98;;;11.13;;
28009;SDS011;15334;49.494;8.410;2023-03-01T11:50:25;18.73;;;11.25;;
28009;SDS011;15334;49.494;8.410;2023-03-01T11:53:07;18.92;;;11.48;;
28009;SDS011;15334;49.494;8.410;2023-03-01T11:55:55;22.00;;;11.23;;
28009;SDS011;15334;49.494;8.410;2023-03-01T11:58:37;22.80;;;10.75;;
28009;SDS011;15334;49.494;8.410;2023-03-01T12:01:27;25.55;;;11.77;;
28009;SDS011;15334;49.494;8.410;2023-03-01T12:04:18;20.25;;;11.32;;
28009;SDS011;15334;49.494;8.410;2023-03-01T12:07:24;21.33;;;11.07;;
28009;SDS011;15334;49.494;8.410;2023-03-01T12:10:10;20.10;;;11.63;;
28009;SDS011;15334;49.494;8.410;2023-03-01T12:12:58;20.33;;;10.70;;
28009;SDS011;15334;49.494;8.410;2023-03-01T12:15:51;18.77;;;11.00;;
28009;SDS011;15334;49.494;8.410;2023-03-01T12:18:45;20.27;;;11.13;;
28009;SDS011;15334;49.494;8.410;2023-03-01T12:21:40;21.73;;;10.88;;
28009;SDS011;15334;49.494;8.410;2023-03-01T12:24:33;16.95;;;9.63;;
28009;SDS011;15334;49.494;8.410;2023-03-01T12:27:29;16.02;;;9.88;;
28009;SDS011;15334;49.494;8.410;2023-03-01T12:30:15;18.08;;;10.27;;
28009;SDS011;15334;49.494;8.410;2023-03-01T12:32:57;19.90;;;10.73;;
28009;SDS011;15334;49.494;8.410;2023-03-01T12:35:45;18.67;;;10.23;;
28009;SDS011;15334;49.494;8.410;2023-03-01T12:38:32;17.35;;;9.57;;
28009;SDS011;15334;49.494;8.410;2023-03-01T12:41:13;17.05;;;10.05;;
28009;SDS011;15334;49.494;8.410;2023-03-01T12:43:58;18.60;;;10.07;;
28009;SDS011;15334;49.494;8.410;2023-03-01T12:46:42;15.90;;;9.38;;
28009;SDS011;15334;49.494;8.410;2023-03-01T12:49:25;19.83;;;10.02;;
28009;SDS011;15334;49.494;8.410;2023-03-01T12:52:00;17.88;;;9.57;;
28009;SDS011;15334;49.494;8.410;2023-03-01T12:54:41;15.75;;;9.45;;
28009;SDS011;15334;49.494;8.410;2023-03-01T12:57:15;16.60;;;10.32;;
28009;SDS011;15334;49.494;8.410;2023-03-01T12:59:57;19.00;;;9.65;;
28009;SDS011;15334;49.494;8.410;2023-03-01T13:02:37;18.65;;;10.43;;
28009;SDS011;15334;49.494;8.410;2023-03-01T13:05:23;18.13;;;10.65;;
28009;SDS011;15334;49.494;8.410;2023-03-01T13:08:08;22.60;;;10.40;;
28009;SDS011;15334;49.494;8.410;2023-03-01T13:10:49;23.83;;;10.10;;
28009;SDS011;15334;49.494;8.410;2023-03-01T13:13:22;23.80;;;10.25;;
28009;SDS011;15334;49.494;8.410;2023-03-01T13:15:52;19.80;;;10.82;;
28009;SDS011;15334;49.494;8.410;2023-03-01T13:18:29;20.00;;;10.13;;
28009;SDS011;15334;49.494;8.410;2023-03-01T13:20:59;20.55;;;10.23;;
28009;SDS011;15334;49.494;8.410;2023-03-01T13:23:30;19.27;;;8.93;;
28009;SDS011;15334;49.494;8.410;2023-03-01T13:26:10;19.70;;;10.30;;
28009;SDS011;15334;49.494;8.410;2023-03-01T13:28:45;21.65;;;9.75;;
28009;SDS011;15334;49.494;8.410;2023-03-01T13:34:18;20.30;;;9.45;;
28009;SDS011;15334;49.494;8.410;2023-03-01T13:37:08;18.45;;;9.10;;
28009;SDS011;15334;49.494;8.410;2023-03-01T13:39:39;19.42;;;9.95;;
28009;SDS011;15334;49.494;8.410;2023-03-01T13:45:32;18.38;;;8.88;;
28009;SDS011;15334;49.494;8.410;2023-03-01T13:48:09;21.33;;;9.32;;
28009;SDS011;15334;49.494;8.410;2023-03-01T13:50:51;16.90;;;8.73;;
28009;SDS011;15334;49.494;8.410;2023-03-01T13:58:26;19.92;;;8.55;;
28009;SDS011;15334;49.494;8.410;2023-03-01T14:01:02;18.73;;;8.02;;
28009;SDS011;15334;49.494;8.410;2023-03-01T14:03:33;24.20;;;9.20;;
28009;SDS011;15334;49.494;8.410;2023-03-01T14:06:09;21.15;;;9.13;;
28009;SDS011;15334;49.494;8.410;2023-03-01T14:08:47;18.42;;;9.50;;
28009;SDS011;15334;49.494;8.410;2023-03-01T14:16:52;21.95;;;9.82;;
28009;SDS011;15334;49.494;8.410;2023-03-01T14:19:29;18.27;;;8.63;;
28009;SDS011;15334;49.494;8.410;2023-03-01T14:22:12;20.38;;;9.27;;
28009;SDS011;15334;49.494;8.410;2023-03-01T14:24:47;19.02;;;8.32;;
28009;SDS011;15334;49.494;8.410;2023-03-01T14:27:18;20.03;;;9.30;;
28009;SDS011;15334;49.494;8.410;2023-03-01T14:29:53;17.13;;;8.93;;
28009;SDS011;15334;49.494;8.410;2023-03-01T14:32:25;21.00;;;9.40;;
28009;SDS011;15334;49.494;8.410;2023-03-01T14:34:58;17.60;;;8.73;;
28009;SDS011;15334;49.494;8.410;2023-03-01T14:37:28;19.05;;;9.05;;
28009;SDS011;15334;49.494;8.410;2023-03-01T14:39:59;19.92;;;8.57;;
28009;SDS011;15334;49.494;8.410;2023-03-01T14:42:33;20.00;;;10.38;;
28009;SDS011;15334;49.494;8.410;2023-03-01T14:45:09;18.42;;;8.18;;
28009;SDS011;15334;49.494;8.410;2023-03-01T14:47:51;19.23;;;9.93;;
28009;SDS011;15334;49.494;8.410;2023-03-01T14:50:26;16.90;;;8.38;;
28009;SDS011;15334;49.494;8.410;2023-03-01T14:53:05;13.15;;;6.28;;
28009;SDS011;15334;49.494;8.410;2023-03-01T14:55:44;16.80;;;8.30;;
28009;SDS011;15334;49.494;8.410;2023-03-01T14:58:28;15.38;;;6.80;;
28009;SDS011;15334;49.494;8.410;2023-03-01T15:01:13;18.35;;;8.30;;
28009;SDS011;15334;49.494;8.410;2023-03-01T15:04:04;16.08;;;7.45;;
28009;SDS011;15334;49.494;8.410;2023-03-01T15:06:39;19.42;;;8.70;;
28009;SDS011;15334;49.494;8.410;2023-03-01T15:09:12;17.63;;;7.72;;
28009;SDS011;15334;49.494;8.410;2023-03-01T15:11:46;13.30;;;7.28;;
28009;SDS011;15334;49.494;8.410;2023-03-01T15:14:26;13.60;;;6.78;;
28009;SDS011;15334;49.494;8.410;2023-03-01T15:16:59;14.52;;;6.68;;
28009;SDS011;15334;49.494;8.410;2023-03-01T15:19:33;12.07;;;6.15;;
28009;SDS011;15334;49.494;8.410;2023-03-01T15:22:02;15.63;;;6.95;;
28009;SDS011;15334;49.494;8.410;2023-03-01T15:24:38;13.90;;;6.85;;
28009;SDS011;15334;49.494;8.410;2023-03-01T15:27:12;15.52;;;7.68;;
28009;SDS011;15334;49.494;8.410;2023-03-01T15:29:48;15.32;;;7.65;;